Temp: 17.4°C   Baro: 1010.1mb
  Wind: 6.0mph   Dir: WNW (299°)
  Rain: 0.8mm (0.0mm/hr)
  Solar: 100W/m2  Hum: 91%
 
Bath Spa Weather Station Historical Data
Daily Summary for June 30, 2020 Units:  English    Metric   Both
Daily Weekly Monthly Yearly Custom
  High: Low: Average:
Temperature: 67.1 °F 53.8 °F 59.2 °F
Dew Point: 59.8 °F 48.6 °F 53.6 °F
Humidity: 87% 73.2% 82%
Wind Speed: 9mph 1.2mph 4.7mph
Wind Gust: 17mph - -
Wind- - WSW
Pressure: 29.82 in 29.66 in -
Precipitation: 0.00 in    
Historical Graphs
 
 
Tabular Data for June 30, 2020
Time Temperature Dew Point Pressure Wind Wind Speed Wind Gust Humidity Rainfall Rate (Hourly) solar
00:04 55.1 °F 48.8 °F 29.82 in West 4.8 mph 9 mph 79.4% 0.00 in 0 W/m2
00:09 55 °F 49 °F 29.82 in West 3.7 mph 6 mph 80.2% 0.00 in 0 W/m2
00:14 55 °F 49.3 °F 29.82 in West 4.1 mph 7 mph 81% 0.00 in 0 W/m2
00:19 55 °F 49.3 °F 29.82 in WSW 4.8 mph 9 mph 80.8% 0.00 in 0 W/m2
00:24 55.2 °F 49.1 °F 29.82 in West 5.1 mph 11 mph 80% 0.00 in 0 W/m2
00:29 55.3 °F 49.2 °F 29.82 in West 4.7 mph 7 mph 80% 0.00 in 0 W/m2
00:34 55.4 °F 49.3 °F 29.81 in West 3.3 mph 8 mph 80% 0.00 in 0 W/m2
00:39 55.6 °F 49.4 °F 29.81 in West 4.6 mph 10 mph 79.8% 0.00 in 0 W/m2
00:44 55.7 °F 49.2 °F 29.81 in WSW 7.4 mph 13 mph 79% 0.00 in 0 W/m2
00:49 55.8 °F 49 °F 29.80 in WSW 5.4 mph 11 mph 78.2% 0.00 in 0 W/m2
00:54 55.8 °F 48.9 °F 29.80 in WSW 5 mph 10 mph 78% 0.00 in 0 W/m2
00:59 55.8 °F 48.8 °F 29.80 in WSW 7.1 mph 10 mph 77.6% 0.00 in 0 W/m2
01:04 55.8 °F 48.7 °F 29.80 in WSW 4.7 mph 9 mph 77% 0.00 in 0 W/m2
01:09 55.8 °F 48.7 °F 29.80 in WSW 3.8 mph 9 mph 77% 0.00 in 0 W/m2
01:14 55.7 °F 48.7 °F 29.80 in SW 6.4 mph 11 mph 77% 0.00 in 0 W/m2
01:19 55.6 °F 48.7 °F 29.80 in WSW 4.8 mph 8 mph 77.4% 0.00 in 0 W/m2
01:24 55.6 °F 48.9 °F 29.80 in WSW 4.7 mph 8 mph 78% 0.00 in 0 W/m2
01:29 55.6 °F 48.9 °F 29.80 in West 6 mph 11 mph 78% 0.00 in 0 W/m2
01:34 55.6 °F 48.9 °F 29.80 in WSW 6.8 mph 12 mph 78% 0.00 in 0 W/m2
01:39 55.6 °F 48.9 °F 29.80 in West 7.2 mph 12 mph 78% 0.00 in 0 W/m2
01:44 55.6 °F 48.9 °F 29.79 in WSW 8.2 mph 12 mph 78% 0.00 in 0 W/m2
01:49 55.6 °F 48.8 °F 29.79 in WSW 9 mph 13 mph 78% 0.00 in 0 W/m2
01:54 55.4 °F 48.7 °F 29.79 in West 6.4 mph 12 mph 78.2% 0.00 in 0 W/m2
01:59 55.4 °F 48.9 °F 29.79 in WSW 6.6 mph 11 mph 79% 0.00 in 0 W/m2
02:04 55.2 °F 48.7 °F 29.79 in West 6.6 mph 12 mph 79% 0.00 in 0 W/m2
02:09 55.2 °F 48.7 °F 29.78 in West 5.3 mph 12 mph 79% 0.00 in 0 W/m2
02:14 55.2 °F 48.7 °F 29.78 in WSW 8.4 mph 12 mph 79% 0.00 in 0 W/m2
02:19 55.1 °F 48.6 °F 29.78 in WSW 4.5 mph 10 mph 79% 0.00 in 0 W/m2
02:24 55 °F 48.8 °F 29.78 in West 3 mph 10 mph 79.8% 0.00 in 0 W/m2
02:29 54.9 °F 48.7 °F 29.78 in West 4.5 mph 9 mph 80% 0.00 in 0 W/m2
02:34 54.7 °F 48.6 °F 29.78 in West 4.1 mph 9 mph 80% 0.00 in 0 W/m2
02:39 54.7 °F 48.8 °F 29.78 in WSW 4.5 mph 9 mph 80.6% 0.00 in 0 W/m2
02:44 54.7 °F 48.9 °F 29.78 in WSW 5.1 mph 12 mph 81% 0.00 in 0 W/m2
02:49 54.7 °F 48.9 °F 29.78 in WSW 5.1 mph 9 mph 81% 0.00 in 0 W/m2
02:54 54.6 °F 48.8 °F 29.78 in West 5.8 mph 10 mph 81% 0.00 in 0 W/m2
02:59 54.5 °F 48.7 °F 29.78 in West 4.2 mph 9 mph 81% 0.00 in 0 W/m2
03:04 54.4 °F 48.6 °F 29.78 in WSW 5.8 mph 11 mph 81% 0.00 in 0 W/m2
03:09 54.3 °F 48.6 °F 29.78 in West 5.7 mph 9 mph 81% 0.00 in 0 W/m2
03:14 54.3 °F 48.8 °F 29.78 in West 4 mph 9 mph 81.6% 0.00 in 0 W/m2
03:19 54.2 °F 48.8 °F 29.78 in West 4 mph 8 mph 82% 0.00 in 0 W/m2
03:24 54.1 °F 48.7 °F 29.78 in West 4.4 mph 10 mph 82% 0.00 in 0 W/m2
03:29 54.1 °F 48.7 °F 29.77 in West 3.6 mph 8 mph 82% 0.00 in 0 W/m2
03:34 54 °F 48.6 °F 29.78 in West 4.4 mph 9 mph 82% 0.00 in 0 W/m2
03:38 54 °F 48.8 °F 29.78 in West 4.7 mph 8 mph 82.8% 0.00 in 0 W/m2
03:44 54 °F 48.9 °F 29.77 in West 5.9 mph 10 mph 83% 0.00 in 0 W/m2
03:49 54 °F 48.9 °F 29.77 in WSW 6.6 mph 10 mph 83% 0.00 in 0 W/m2
03:54 54 °F 48.9 °F 29.77 in West 4.8 mph 9 mph 83% 0.00 in 0 W/m2
03:59 54 °F 48.9 °F 29.77 in WSW 5.4 mph 9 mph 83% 0.00 in 0 W/m2
04:04 54.1 °F 49.1 °F 29.76 in WSW 4.1 mph 10 mph 83% 0.00 in 0 W/m2
04:09 54.1 °F 49.1 °F 29.76 in WSW 3.2 mph 5 mph 83% 0.00 in 0 W/m2
04:14 54.1 °F 49.1 °F 29.76 in WSW 4.5 mph 7 mph 83% 0.00 in 0 W/m2
04:19 54.1 °F 49.1 °F 29.76 in WSW 3.2 mph 8 mph 83% 0.00 in 0 W/m2
04:24 54.1 °F 49.1 °F 29.76 in WSW 5 mph 11 mph 83% 0.00 in 0 W/m2
04:29 54.1 °F 49 °F 29.76 in West 3.6 mph 10 mph 83% 0.00 in 0 W/m2
04:34 54 °F 48.9 °F 29.76 in WSW 4.5 mph 9 mph 83% 0.00 in 0 W/m2
04:39 54 °F 49.1 °F 29.76 in West 4.1 mph 9 mph 83.4% 0.00 in 0 W/m2
04:44 54 °F 48.9 °F 29.76 in WSW 4.5 mph 8 mph 83% 0.00 in 0 W/m2
04:49 54 °F 49 °F 29.76 in WSW 3.9 mph 7 mph 83.2% 0.00 in 0 W/m2
04:54 54 °F 49.3 °F 29.75 in WSW 4.5 mph 8 mph 84% 0.00 in 0 W/m2
04:59 54 °F 49.3 °F 29.75 in WSW 4.5 mph 7 mph 84% 0.00 in 0 W/m2
05:04 54 °F 49.3 °F 29.76 in WSW 4.5 mph 6 mph 84% 0.00 in 0 W/m2
05:09 54 °F 49.3 °F 29.75 in WSW 3.3 mph 6 mph 84% 0.00 in 0 W/m2
05:14 53.9 °F 49.2 °F 29.76 in West 4.8 mph 7 mph 84% 0.00 in 0 W/m2
05:19 53.8 °F 49.1 °F 29.76 in West 2.9 mph 6 mph 84% 0.00 in 5 W/m2
05:24 53.8 °F 49.3 °F 29.75 in West 2.4 mph 6 mph 84.6% 0.00 in 5 W/m2
05:29 53.9 °F 49.5 °F 29.75 in WSW 4.2 mph 8 mph 85% 0.00 in 5 W/m2
05:34 54 °F 49.6 °F 29.75 in WSW 4.9 mph 8 mph 85% 0.00 in 7 W/m2
05:39 54 °F 49.6 °F 29.75 in WSW 4.1 mph 7 mph 85% 0.00 in 9 W/m2
05:44 54 °F 49.6 °F 29.75 in WSW 3.2 mph 7 mph 85% 0.00 in 9 W/m2
05:49 54.1 °F 49.7 °F 29.75 in WSW 5.2 mph 8 mph 85% 0.00 in 7 W/m2
05:54 54.1 °F 49.8 °F 29.75 in West 4.4 mph 9 mph 85% 0.00 in 9 W/m2
05:59 54.1 °F 49.8 °F 29.75 in WSW 4.8 mph 8 mph 85% 0.00 in 11 W/m2
06:04 54.1 °F 49.7 °F 29.75 in WSW 3.7 mph 7 mph 84.5% 0.00 in 16 W/m2
06:09 54.1 °F 49.5 °F 29.75 in WSW 4.8 mph 9 mph 84% 0.00 in 18 W/m2
06:14 54.3 °F 49.8 °F 29.75 in WSW 3.3 mph 6 mph 84.8% 0.00 in 25 W/m2
06:19 54.3 °F 49.8 °F 29.75 in WSW 4.1 mph 9 mph 85% 0.00 in 32 W/m2
06:24 54.3 °F 49.8 °F 29.76 in SW 5.3 mph 10 mph 84.8% 0.00 in 30 W/m2
06:29 54.5 °F 49.8 °F 29.75 in SW 4 mph 7 mph 84% 0.00 in 35 W/m2
06:34 54.6 °F 49.9 °F 29.76 in WSW 5 mph 8 mph 84% 0.00 in 46 W/m2
06:39 54.7 °F 50 °F 29.76 in WSW 3.6 mph 9 mph 84% 0.00 in 49 W/m2
06:44 54.8 °F 50.1 °F 29.76 in WSW 5 mph 9 mph 84% 0.00 in 42 W/m2
06:49 54.9 °F 50.2 °F 29.76 in WSW 5.4 mph 9 mph 84% 0.00 in 60 W/m2
06:54 54.9 °F 50.2 °F 29.75 in WSW 3.3 mph 10 mph 84% 0.00 in 60 W/m2
06:59 54.9 °F 50.2 °F 29.75 in SW 4.7 mph 9 mph 84% 0.00 in 54 W/m2
07:04 55 °F 50.4 °F 29.75 in SW 5.7 mph 10 mph 84% 0.00 in 76 W/m2
07:09 55 °F 50.4 °F 29.75 in SW 4.6 mph 10 mph 84% 0.00 in 81 W/m2
07:14 55.1 °F 50.5 °F 29.75 in SW 6.4 mph 10 mph 84% 0.00 in 93 W/m2
07:19 55.2 °F 50.5 °F 29.75 in SW 7.6 mph 10 mph 84% 0.00 in 107 W/m2
07:24 55.5 °F 50.8 °F 29.75 in SW 5.1 mph 10 mph 84% 0.00 in 91 W/m2
07:29 55.6 °F 50.5 °F 29.75 in SW 4.6 mph 9 mph 83% 0.00 in 72 W/m2
07:34 55.8 °F 50.9 °F 29.75 in SW 3.6 mph 8 mph 83.6% 0.00 in 93 W/m2
07:39 55.8 °F 50.7 °F 29.74 in WSW 6.3 mph 10 mph 83% 0.00 in 135 W/m2
07:44 55.8 °F 50.7 °F 29.74 in WSW 6.1 mph 11 mph 83% 0.00 in 207 W/m2
07:49 55.9 °F 50.8 °F 29.74 in SW 5.9 mph 11 mph 83% 0.00 in 206 W/m2
07:54 56.1 °F 50.9 °F 29.74 in WSW 4.4 mph 9 mph 82.6% 0.00 in 139 W/m2
07:59 56.3 °F 51.2 °F 29.74 in WSW 4 mph 8 mph 82.8% 0.00 in 113 W/m2
08:04 56.3 °F 50.9 °F 29.74 in WSW 5.8 mph 11 mph 82% 0.00 in 118 W/m2
08:09 56.2 °F 50.8 °F 29.74 in WSW 4.4 mph 8 mph 82% 0.00 in 93 W/m2
08:14 56.3 °F 50.9 °F 29.74 in WSW 3.6 mph 8 mph 82% 0.00 in 104 W/m2
08:19 56.4 °F 51 °F 29.74 in SW 4.4 mph 8 mph 82% 0.00 in 121 W/m2
08:24 56.5 °F 51.1 °F 29.74 in WSW 4.7 mph 8 mph 82% 0.00 in 165 W/m2
08:29 56.6 °F 51.2 °F 29.75 in WSW 5.7 mph 9 mph 82% 0.00 in 169 W/m2
08:34 56.7 °F 51.3 °F 29.75 in WSW 5.6 mph 9 mph 82% 0.00 in 172 W/m2
08:38 56.8 °F 51.4 °F 29.75 in West 3.2 mph 7 mph 82% 0.00 in 146 W/m2
08:44 57 °F 51.5 °F 29.75 in WSW 4.4 mph 9 mph 81.6% 0.00 in 146 W/m2
08:49 56.8 °F 51.1 °F 29.75 in WSW 4.9 mph 8 mph 81% 0.00 in 155 W/m2
08:54 56.8 °F 51.1 °F 29.75 in WSW 5.6 mph 9 mph 81% 0.00 in 163 W/m2
08:59 57 °F 51.3 °F 29.74 in WSW 5.2 mph 9 mph 81% 0.00 in 163 W/m2
09:04 57 °F 51.4 °F 29.74 in WSW 4.1 mph 8 mph 81.2% 0.00 in 176 W/m2
09:09 57 °F 51.4 °F 29.74 in WSW 5.4 mph 9 mph 81.2% 0.00 in 171 W/m2
09:14 57 °F 51.3 °F 29.74 in WSW 6.4 mph 9 mph 81% 0.00 in 163 W/m2
09:19 57 °F 51.3 °F 29.74 in WSW 5.3 mph 10 mph 81% 0.00 in 148 W/m2
09:24 57 °F 51.3 °F 29.74 in SW 4.7 mph 10 mph 81% 0.00 in 181 W/m2
09:29 57 °F 51.3 °F 29.74 in SW 3.5 mph 10 mph 81% 0.00 in 156 W/m2
09:34 57.3 °F 51.5 °F 29.74 in WSW 4.5 mph 8 mph 81% 0.00 in 146 W/m2
09:39 57.4 °F 51.6 °F 29.74 in SW 4.8 mph 8 mph 81% 0.00 in 176 W/m2
09:44 57.4 °F 51.4 °F 29.74 in SW 4.1 mph 10 mph 80.4% 0.00 in 171 W/m2
09:49 57.4 °F 51.2 °F 29.74 in SW 4.5 mph 8 mph 79.8% 0.00 in 220 W/m2
09:54 57.4 °F 50.5 °F 29.74 in SW 5.1 mph 9 mph 78% 0.00 in 220 W/m2
09:59 57.6 °F 50.1 °F 29.74 in SW 6.3 mph 10 mph 76.2% 0.00 in 281 W/m2
10:04 57.6 °F 49.6 °F 29.73 in SW 4.1 mph 10 mph 75% 0.00 in 294 W/m2
10:09 57.8 °F 49.8 °F 29.73 in WSW 6 mph 9 mph 74.6% 0.00 in 269 W/m2
10:14 58 °F 49.4 °F 29.73 in WSW 4.8 mph 10 mph 73.2% 0.00 in 258 W/m2
10:19 57.9 °F 49.5 °F 29.74 in SW 6.1 mph 11 mph 73.6% 0.00 in 188 W/m2
10:23 57.9 °F 49.8 °F 29.74 in WSW 5.2 mph 9 mph 74.5% 0.00 in 243 W/m2
10:29 57.9 °F 50 °F 29.74 in WSW 6.5 mph 12 mph 75% 0.00 in 403 W/m2
10:34 58 °F 50.1 °F 29.74 in WSW 4.4 mph 11 mph 75% 0.00 in 311 W/m2
10:39 58.3 °F 50.4 °F 29.74 in West 6.3 mph 11 mph 75% 0.00 in 285 W/m2
10:44 58 °F 50.4 °F 29.73 in West 3.7 mph 11 mph 75.8% 0.00 in 169 W/m2
10:49 58.1 °F 50.8 °F 29.74 in SW 5 mph 9 mph 76.6% 0.00 in 181 W/m2
10:54 58.2 °F 50.9 °F 29.73 in WSW 5.5 mph 10 mph 76.8% 0.00 in 323 W/m2
10:58 58.6 °F 51.4 °F 29.73 in West 4.8 mph 9 mph 77% 0.00 in 420 W/m2
11:04 59 °F 51.6 °F 29.73 in West 6.2 mph 12 mph 76.4% 0.00 in 422 W/m2
11:09 58.8 °F 51.3 °F 29.73 in West 4.6 mph 11 mph 76.2% 0.00 in 429 W/m2
11:14 58.7 °F 51.5 °F 29.73 in WSW 7 mph 12 mph 77% 0.00 in 216 W/m2
11:19 58.8 °F 52 °F 29.73 in SW 5.8 mph 10 mph 78% 0.00 in 151 W/m2
11:24 58.6 °F 52.2 °F 29.73 in SW 4 mph 9 mph 79.2% 0.00 in 135 W/m2
11:29 58.6 °F 52.6 °F 29.73 in SW 3.2 mph 7 mph 80.2% 0.00 in 204 W/m2
11:34 58.5 °F 52.8 °F 29.73 in WSW 6 mph 10 mph 81% 0.00 in 258 W/m2
11:39 58.5 °F 52.8 °F 29.73 in SW 4.1 mph 7 mph 81% 0.00 in 269 W/m2
11:44 58.6 °F 52.9 °F 29.73 in WSW 4 mph 9 mph 81% 0.00 in 269 W/m2
11:49 58.6 °F 52.6 °F 29.72 in SW 7 mph 12 mph 80.2% 0.00 in 302 W/m2
11:54 58.6 °F 52.3 °F 29.72 in SW 4.7 mph 12 mph 79.2% 0.00 in 279 W/m2
11:59 58.7 °F 52.6 °F 29.73 in WSW 4.7 mph 8 mph 80% 0.00 in 218 W/m2
12:04 58.7 °F 52.6 °F 29.73 in WSW 4 mph 9 mph 80% 0.00 in 227 W/m2
12:09 58.8 °F 52.9 °F 29.73 in SW 2.8 mph 8 mph 80.4% 0.00 in 216 W/m2
12:14 58.9 °F 53.2 °F 29.73 in SW 4.6 mph 11 mph 81% 0.00 in 236 W/m2
12:19 58.7 °F 53 °F 29.72 in WSW 7 mph 10 mph 81% 0.00 in 232 W/m2
12:24 58.7 °F 53.2 °F 29.72 in WSW 3.6 mph 10 mph 81.6% 0.00 in 260 W/m2
12:29 59.2 °F 53.7 °F 29.72 in SSW 3.9 mph 7 mph 82% 0.00 in 294 W/m2
12:34 59.4 °F 53.9 °F 29.72 in WSW 4.4 mph 9 mph 82% 0.00 in 392 W/m2
12:39 59.8 °F 54.1 °F 29.72 in SW 3.7 mph 9 mph 81.5% 0.00 in 397 W/m2
12:44 60.3 °F 54.4 °F 29.72 in SW 3.3 mph 8 mph 81% 0.00 in 387 W/m2
12:49 60.4 °F 54.5 °F 29.72 in SSW 3.7 mph 8 mph 81% 0.00 in 209 W/m2
12:54 60.3 °F 54.3 °F 29.72 in SW 4.1 mph 6 mph 81% 0.00 in 163 W/m2
12:59 60.4 °F 54.5 °F 29.72 in SW 2.4 mph 4 mph 81% 0.00 in 200 W/m2
13:04 60.6 °F 54.7 °F 29.72 in South 4.1 mph 9 mph 81% 0.00 in 253 W/m2
13:09 60.8 °F 54.9 °F 29.72 in SW 4.1 mph 7 mph 81% 0.00 in 257 W/m2
13:14 60.6 °F 54.7 °F 29.72 in SSW 5.2 mph 7 mph 81% 0.00 in 149 W/m2
13:19 60.6 °F 54.9 °F 29.71 in SSW 4.8 mph 7 mph 81.8% 0.00 in 127 W/m2
13:24 60.6 °F 55 °F 29.71 in SSW 2.8 mph 7 mph 82% 0.00 in 148 W/m2
13:29 60.9 °F 55.3 °F 29.71 in SSW 2.3 mph 5 mph 82% 0.00 in 132 W/m2
13:34 61.1 °F 55.5 °F 29.71 in SSW 2.1 mph 6 mph 82% 0.00 in 132 W/m2
13:39 61.3 °F 55.7 °F 29.71 in SSW 3.7 mph 6 mph 82% 0.00 in 236 W/m2
13:44 61.4 °F 55.8 °F 29.70 in SW 2.5 mph 6 mph 82% 0.00 in 246 W/m2
13:49 61.6 °F 56 °F 29.70 in SSW 6.2 mph 10 mph 82% 0.00 in 244 W/m2
13:54 61.8 °F 56.2 °F 29.70 in SW 5.8 mph 10 mph 82% 0.00 in 359 W/m2
13:59 61.9 °F 56.3 °F 29.70 in SW 4.4 mph 10 mph 82% 0.00 in 309 W/m2
14:04 62.2 °F 56.7 °F 29.70 in SSW 5 mph 10 mph 82% 0.00 in 316 W/m2
14:09 62.4 °F 56.5 °F 29.70 in SW 4 mph 11 mph 81% 0.00 in 265 W/m2
14:14 62.4 °F 56.5 °F 29.70 in WSW 5.8 mph 11 mph 81% 0.00 in 244 W/m2
14:19 62.4 °F 56.5 °F 29.70 in WSW 5.7 mph 12 mph 81% 0.00 in 264 W/m2
14:24 62.4 °F 56.5 °F 29.70 in SSW 5.2 mph 13 mph 81% 0.00 in 223 W/m2
14:29 62.7 °F 56.7 °F 29.70 in SW 4.9 mph 9 mph 81% 0.00 in 216 W/m2
14:33 62.8 °F 56.8 °F 29.70 in SW 5 mph 8 mph 81% 0.00 in 250 W/m2
14:39 63 °F 57 °F 29.70 in SSW 4.6 mph 11 mph 81% 0.00 in 276 W/m2
14:44 63 °F 57.1 °F 29.70 in SW 8.6 mph 12 mph 81.2% 0.00 in 308 W/m2
14:49 63.1 °F 57.3 °F 29.70 in SW 2.9 mph 11 mph 81.2% 0.00 in 294 W/m2
14:54 63.5 °F 57.6 °F 29.69 in SSW 4.9 mph 12 mph 81% 0.00 in 292 W/m2
14:59 63.3 °F 57.4 °F 29.70 in SW 6.2 mph 10 mph 81% 0.00 in 260 W/m2
15:04 63.6 °F 57.9 °F 29.70 in WSW 4.4 mph 10 mph 81.8% 0.00 in 313 W/m2
15:09 63.7 °F 57.8 °F 29.70 in SW 4.9 mph 11 mph 81.2% 0.00 in 519 W/m2
15:14 63.9 °F 58.1 °F 29.70 in SW 6.8 mph 13 mph 81.4% 0.00 in 652 W/m2
15:19 64.6 °F 58.6 °F 29.69 in SW 7.2 mph 10 mph 81% 0.00 in 580 W/m2
15:24 65 °F 58.7 °F 29.69 in SW 6 mph 11 mph 80% 0.00 in 636 W/m2
15:29 65.5 °F 59 °F 29.69 in SW 5.2 mph 9 mph 79.6% 0.00 in 796 W/m2
15:34 66 °F 59.3 °F 29.68 in WSW 5.8 mph 10 mph 78.8% 0.00 in 686 W/m2
15:39 66.5 °F 59.4 °F 29.68 in WSW 6.4 mph 10 mph 77.8% 0.00 in 517 W/m2
15:44 67.1 °F 59.6 °F 29.68 in WSW 6.2 mph 13 mph 76.8% 0.00 in 638 W/m2
15:49 67 °F 59.2 °F 29.68 in SW 7.2 mph 13 mph 75.8% 0.00 in 638 W/m2
15:54 66.6 °F 58.8 °F 29.68 in SW 6.4 mph 15 mph 75.8% 0.00 in 301 W/m2
15:59 66 °F 58.6 °F 29.68 in SW 6.6 mph 13 mph 77% 0.00 in 223 W/m2
16:04 65.6 °F 58.5 °F 29.68 in WSW 6.2 mph 13 mph 77.8% 0.00 in 188 W/m2
16:09 65.1 °F 58.5 °F 29.68 in WSW 7.2 mph 13 mph 79% 0.00 in 237 W/m2
16:13 65.1 °F 58.5 °F 29.68 in SW 5.8 mph 12 mph 79.3% 0.00 in 197 W/m2
16:19 65.5 °F 59.2 °F 29.67 in WSW 5.1 mph 10 mph 79.8% 0.00 in 341 W/m2
16:24 65.7 °F 59 °F 29.67 in SW 6.8 mph 12 mph 79% 0.00 in 306 W/m2
16:29 65.8 °F 59.1 °F 29.67 in SW 5.9 mph 10 mph 79% 0.00 in 272 W/m2
16:34 65.9 °F 59.4 °F 29.67 in SW 4.8 mph 10 mph 79.4% 0.00 in 271 W/m2
16:39 66.3 °F 59.7 °F 29.67 in WSW 4.9 mph 10 mph 79.2% 0.00 in 255 W/m2
16:44 66.5 °F 59.8 °F 29.67 in WSW 5 mph 10 mph 79% 0.00 in 318 W/m2
16:49 66.6 °F 59.8 °F 29.67 in WSW 4.6 mph 9 mph 78.6% 0.00 in 260 W/m2
16:54 66.6 °F 59.6 °F 29.67 in West 5.8 mph 11 mph 78% 0.00 in 169 W/m2
16:59 66.5 °F 59.5 °F 29.67 in SW 4.9 mph 14 mph 78% 0.00 in 134 W/m2
17:04 66.6 °F 59.5 °F 29.67 in WSW 6.8 mph 11 mph 78% 0.00 in 88 W/m2
17:09 66.1 °F 59.4 °F 29.67 in WSW 4.7 mph 11 mph 78.8% 0.00 in 58 W/m2
17:14 65.6 °F 59.5 °F 29.67 in West 6.3 mph 9 mph 80.6% 0.00 in 102 W/m2
17:19 64.8 °F 59.2 °F 29.67 in WSW 7.6 mph 17 mph 81.8% 0.00 in 214 W/m2
17:24 64.2 °F 58.8 °F 29.67 in West 6.7 mph 12 mph 82.4% 0.00 in 360 W/m2
17:29 64.5 °F 59.3 °F 29.67 in WSW 5.1 mph 11 mph 83% 0.00 in 360 W/m2
17:34 64.8 °F 59.3 °F 29.67 in WNW 5.6 mph 10 mph 82.2% 0.00 in 258 W/m2
17:39 65 °F 59.4 °F 29.67 in West 4.6 mph 11 mph 81.8% 0.00 in 279 W/m2
17:44 65.1 °F 59.2 °F 29.67 in West 6.6 mph 12 mph 80.8% 0.00 in 315 W/m2
17:49 65.1 °F 58.8 °F 29.67 in West 7 mph 11 mph 80% 0.00 in 504 W/m2
17:54 65.7 °F 59.4 °F 29.67 in West 5.3 mph 9 mph 80% 0.00 in 362 W/m2
17:59 65.7 °F 59.1 °F 29.66 in WNW 5.6 mph 10 mph 79.2% 0.00 in 322 W/m2
18:03 65.5 °F 58.8 °F 29.67 in WNW 5.8 mph 11 mph 79% 0.00 in 278 W/m2
18:09 65.4 °F 58.7 °F 29.67 in WNW 5.6 mph 10 mph 79% 0.00 in 250 W/m2
18:14 65.4 °F 58.9 °F 29.67 in WNW 5.6 mph 11 mph 79.6% 0.00 in 232 W/m2
18:19 64.9 °F 58.7 °F 29.67 in WNW 7 mph 11 mph 80.2% 0.00 in 204 W/m2
18:24 64.6 °F 58.6 °F 29.67 in WNW 5 mph 9 mph 81% 0.00 in 165 W/m2
18:29 64.4 °F 58.7 °F 29.67 in WNW 5 mph 9 mph 81.8% 0.00 in 176 W/m2
18:34 64 °F 58.5 °F 29.67 in WNW 6.5 mph 11 mph 82.2% 0.00 in 237 W/m2
18:39 63.8 °F 58.5 °F 29.67 in WNW 4 mph 11 mph 82.8% 0.00 in 146 W/m2
18:44 63.4 °F 58.3 °F 29.67 in WNW 6 mph 10 mph 83.2% 0.00 in 142 W/m2
18:49 63.3 °F 58.5 °F 29.67 in WNW 4.5 mph 10 mph 84% 0.00 in 95 W/m2
18:54 63.1 °F 58.2 °F 29.67 in WNW 5.3 mph 10 mph 84% 0.00 in 81 W/m2
18:59 62.9 °F 58 °F 29.67 in WNW 7.2 mph 11 mph 84% 0.00 in 148 W/m2
19:04 63 °F 58.4 °F 29.67 in West 5.1 mph 11 mph 84.8% 0.00 in 290 W/m2
19:09 63.2 °F 58.5 °F 29.67 in West 4.9 mph 7 mph 84.4% 0.00 in 272 W/m2
19:14 63.3 °F 58.5 °F 29.67 in West 5.4 mph 9 mph 84% 0.00 in 178 W/m2
19:19 63.5 °F 58.6 °F 29.67 in West 3.7 mph 9 mph 84% 0.00 in 214 W/m2
19:24 63.5 °F 58.6 °F 29.67 in WNW 5.2 mph 10 mph 84% 0.00 in 209 W/m2
19:29 63.3 °F 58.5 °F 29.66 in WNW 7.6 mph 11 mph 84% 0.00 in 234 W/m2
19:34 63.1 °F 58.1 °F 29.66 in West 6.2 mph 12 mph 83.6% 0.00 in 207 W/m2
19:39 63.1 °F 58.2 °F 29.66 in WNW 8.9 mph 9 mph 84% 0.00 in 109 W/m2
19:44 62.8 °F 57.9 °F 29.66 in WNW 5.4 mph 11 mph 84% 0.00 in 98 W/m2
19:49 62.6 °F 57.8 °F 29.66 in WNW 6 mph 12 mph 84% 0.00 in 139 W/m2
19:54 62.5 °F 57.6 °F 29.66 in West 5.3 mph 10 mph 84% 0.00 in 116 W/m2
19:59 62.4 °F 57.6 °F 29.66 in West 4.5 mph 10 mph 84% 0.00 in 151 W/m2
20:04 62.4 °F 57.6 °F 29.66 in West 5.3 mph 10 mph 84% 0.00 in 174 W/m2
20:09 62.4 °F 57.6 °F 29.66 in West 5 mph 10 mph 84% 0.00 in 86 W/m2
20:14 62.2 °F 57.4 °F 29.66 in West 4.4 mph 7 mph 84% 0.00 in 88 W/m2
20:19 62.2 °F 57.5 °F 29.66 in West 4.1 mph 6 mph 84.4% 0.00 in 81 W/m2
20:24 62.2 °F 57.7 °F 29.66 in West 3.7 mph 6 mph 85% 0.00 in 77 W/m2
20:28 62.2 °F 57.7 °F 29.66 in West 3 mph 4 mph 85% 0.00 in 90 W/m2
20:34 62.2 °F 57.7 °F 29.66 in WSW 2.9 mph 7 mph 85% 0.00 in 72 W/m2
20:39 62.2 °F 57.6 °F 29.66 in WSW 3.3 mph 5 mph 84.8% 0.00 in 69 W/m2
20:44 62.2 °F 57.7 °F 29.66 in WSW 3.2 mph 5 mph 85% 0.00 in 58 W/m2
20:49 62.2 °F 57.7 °F 29.66 in WSW 2.8 mph 6 mph 85% 0.00 in 47 W/m2
20:54 62.2 °F 57.7 °F 29.66 in WSW 3 mph 5 mph 85% 0.00 in 35 W/m2
20:59 62.1 °F 57.6 °F 29.66 in WSW 2.6 mph 5 mph 84.8% 0.00 in 35 W/m2
21:04 62.1 °F 57.3 °F 29.66 in WSW 2.8 mph 5 mph 84% 0.00 in 37 W/m2
21:09 62.1 °F 57.2 °F 29.66 in WSW 3.5 mph 5 mph 84% 0.00 in 35 W/m2
21:14 62.1 °F 57.2 °F 29.66 in WSW 2.5 mph 5 mph 84% 0.00 in 30 W/m2
21:19 61.9 °F 57 °F 29.66 in WSW 3.8 mph 6 mph 84% 0.00 in 21 W/m2
21:24 61.9 °F 57 °F 29.66 in WSW 1.7 mph 5 mph 84% 0.00 in 16 W/m2
21:29 61.8 °F 56.9 °F 29.66 in West 2 mph 6 mph 84% 0.00 in 11 W/m2
21:34 61.6 °F 56.7 °F 29.66 in WNW 3.9 mph 7 mph 84% 0.00 in 5 W/m2
21:39 61.5 °F 56.7 °F 29.66 in West 4.5 mph 7 mph 84% 0.00 in 0 W/m2
21:44 61.5 °F 56.7 °F 29.66 in West 2.4 mph 6 mph 84% 0.00 in 0 W/m2
21:54 61.4 °F 56.6 °F 29.66 in West 3 mph 5 mph 84% 0.00 in 0 W/m2
21:59 61.3 °F 56.5 °F 29.66 in West 3.1 mph 5 mph 84% 0.00 in 0 W/m2
22:04 61.2 °F 56.5 °F 29.66 in West 2.7 mph 5 mph 84.6% 0.00 in 0 W/m2
22:09 61.2 °F 56.7 °F 29.66 in West 2.8 mph 5 mph 85% 0.00 in 0 W/m2
22:19 61.2 °F 56.7 °F 29.66 in West 1.5 mph 4 mph 85% 0.00 in 0 W/m2
22:24 61.1 °F 56.6 °F 29.66 in WNW 1.7 mph 6 mph 85% 0.00 in 0 W/m2
22:29 61 °F 56.5 °F 29.66 in West 3.2 mph 7 mph 85% 0.00 in 0 W/m2
22:34 61 °F 56.5 °F 29.66 in WNW 1.9 mph 5 mph 85% 0.00 in 0 W/m2
22:39 61 °F 56.5 °F 29.66 in WNW 1.6 mph 3 mph 85% 0.00 in 0 W/m2
22:44 61 °F 56.5 °F 29.66 in West 2.4 mph 4 mph 85% 0.00 in 0 W/m2
22:48 61 °F 56.5 °F 29.66 in West 2 mph 4 mph 85% 0.00 in 0 W/m2
22:54 61 °F 56.5 °F 29.66 in West 1.6 mph 3 mph 85% 0.00 in 0 W/m2
22:59 60.8 °F 56.3 °F 29.66 in West 2.4 mph 5 mph 85% 0.00 in 0 W/m2
23:04 60.7 °F 56.2 °F 29.66 in West 2.4 mph 4 mph 85% 0.00 in 0 W/m2
23:09 60.6 °F 56.1 °F 29.66 in West 1.2 mph 4 mph 85% 0.00 in 0 W/m2
23:14 60.6 °F 56.1 °F 29.66 in West 2.2 mph 4 mph 85% 0.00 in 0 W/m2
23:19 60.6 °F 56.1 °F 29.66 in West 3.4 mph 7 mph 85% 0.00 in 0 W/m2
23:23 60.6 °F 56.2 °F 29.67 in West 2.2 mph 6 mph 85.3% 0.00 in 0 W/m2
23:29 60.4 °F 56.3 °F 29.67 in West 1.6 mph 5 mph 86% 0.00 in 0 W/m2
23:34 60.4 °F 56.3 °F 29.66 in WSW 2.5 mph 4 mph 86% 0.00 in 0 W/m2
23:39 60.4 °F 56.2 °F 29.66 in West 2.8 mph 5 mph 86% 0.00 in 0 W/m2
23:44 60.3 °F 56.1 °F 29.67 in West 3 mph 6 mph 86% 0.00 in 0 W/m2
23:54 60.2 °F 56.1 °F 29.67 in WSW 2.1 mph 6 mph 86.8% 0.00 in 0 W/m2
23:59 60 °F 56 °F 29.67 in West 3.6 mph 7 mph 87% 0.00 in 0 W/m2
Bath Spa Weather
Compliments of Weather Underground - 2 mb